Terminal Aerodrome Forecast
Issued by NWS

Home | Current Version | Previous Version | Text Only | Print | Product List | Glossary On
Versions: 1 2 3 4 5 6 7 8 9 10 11 12 13 14 15 16 17 18 19 20
978
FTUS42 KFFC 301734
TAFRYY
TAF
KRYY 301734Z 3018/0118 18010G17KT P6SM VCSH BKN050
      TEMPO 3018/3019 3SM -TSRA BR BKN025CB
     FM010000 19005KT 5SM -TSRA BR BKN030CB
     FM010400 19005KT P6SM SCT060 BKN250
     FM010900 20004KT P6SM BKN015
     FM011400 23008KT P6SM VCSH BKN025=

USA.gov is the U.S. government's official web portal to all federal, state and local government web resources and services.